createdAt,value
2022-10-09T00:00:28.494Z,26.20
2022-10-09T00:03:00.897Z,30.80
2022-10-09T00:05:33.680Z,21.10
2022-10-09T00:08:06.593Z,25.33
2022-10-09T00:10:43.985Z,26.13
2022-10-09T00:13:16.470Z,23.95
2022-10-09T00:15:49.090Z,24.20
2022-10-09T00:18:21.879Z,26.08
2022-10-09T00:20:54.417Z,26.50
2022-10-09T00:23:27.137Z,22.25
2022-10-09T00:26:01.905Z,28.20
2022-10-09T00:28:38.303Z,25.50
2022-10-09T00:31:12.988Z,24.92
2022-10-09T00:33:47.027Z,24.30
2022-10-09T00:36:24.838Z,28.67
2022-10-09T00:38:57.405Z,20.25
2022-10-09T00:41:34.046Z,22.27
2022-10-09T00:44:37.479Z,19.45
2022-10-09T00:47:31.334Z,16.30
2022-10-09T00:50:12.262Z,12.48
2022-10-09T00:52:45.600Z,14.43
2022-10-09T00:55:18.660Z,15.95
2022-10-09T00:57:54.221Z,13.48
2022-10-09T01:00:27.529Z,16.85
2022-10-09T01:03:00.642Z,17.98
2022-10-09T01:06:04.263Z,24.15
2022-10-09T01:08:55.954Z,24.13
2022-10-09T01:11:51.205Z,22.10
2022-10-09T01:14:29.185Z,22.50
2022-10-09T01:17:07.048Z,21.58
2022-10-09T01:19:56.134Z,18.88
2022-10-09T01:22:56.275Z,19.25
2022-10-09T01:25:35.837Z,17.60
2022-10-09T01:28:10.000Z,17.83
2022-10-09T01:30:43.281Z,20.65
2022-10-09T01:33:16.795Z,21.05
2022-10-09T01:35:51.608Z,20.45
2022-10-09T01:38:25.277Z,18.45
2022-10-09T01:40:58.960Z,21.20
2022-10-09T01:43:31.393Z,18.52
2022-10-09T01:46:22.636Z,19.35
2022-10-09T01:49:20.241Z,18.75
2022-10-09T01:52:05.820Z,17.63
2022-10-09T01:54:58.682Z,17.38
2022-10-09T01:57:58.030Z,18.20
2022-10-09T02:00:36.464Z,19.25
2022-10-09T02:03:12.666Z,17.65
2022-10-09T02:05:48.780Z,15.60
2022-10-09T02:08:24.078Z,17.30
2022-10-09T02:10:59.469Z,15.25
2022-10-09T02:13:34.831Z,15.98
2022-10-09T02:16:23.429Z,18.17
2022-10-09T02:19:03.032Z,14.50
2022-10-09T02:21:48.037Z,18.73
2022-10-09T02:24:24.639Z,15.75
2022-10-09T02:26:59.003Z,17.02
2022-10-09T02:29:32.040Z,11.77
2022-10-09T02:32:04.517Z,12.38
2022-10-09T02:34:37.324Z,13.68
2022-10-09T02:37:09.903Z,13.65
2022-10-09T02:39:43.882Z,13.57
2022-10-09T02:42:16.357Z,14.95
2022-10-09T02:44:49.056Z,13.77
2022-10-09T02:47:21.548Z,15.25
2022-10-09T02:49:54.119Z,17.23
2022-10-09T02:52:26.509Z,14.15
2022-10-09T02:54:58.864Z,13.95
2022-10-09T02:57:31.557Z,14.30
2022-10-09T03:00:05.955Z,15.20
2022-10-09T03:02:38.522Z,14.57
2022-10-09T03:05:11.220Z,16.70
2022-10-09T03:07:51.534Z,10.40
2022-10-09T03:10:24.093Z,14.93
2022-10-09T03:12:56.595Z,13.02
2022-10-09T03:15:29.212Z,14.18
2022-10-09T03:18:02.003Z,14.63
2022-10-09T03:20:34.527Z,12.82
2022-10-09T03:23:07.007Z,12.00
2022-10-09T03:25:39.415Z,17.33
2022-10-09T03:28:11.883Z,11.85
2022-10-09T03:30:44.361Z,12.15
2022-10-09T03:33:16.933Z,13.82
2022-10-09T03:35:50.481Z,14.68
2022-10-09T03:38:22.975Z,13.07
2022-10-09T03:40:55.565Z,16.38
2022-10-09T03:43:29.163Z,12.68
2022-10-09T03:46:06.845Z,12.35
2022-10-09T03:48:39.497Z,14.93
2022-10-09T03:51:12.051Z,13.90
2022-10-09T03:53:44.763Z,14.00
2022-10-09T03:56:17.207Z,14.45
2022-10-09T03:58:49.664Z,17.80
2022-10-09T04:01:22.217Z,14.85
2022-10-09T04:03:54.717Z,15.52
2022-10-09T04:06:27.210Z,15.60
2022-10-09T04:09:01.402Z,20.48
2022-10-09T04:11:34.466Z,21.98
2022-10-09T04:14:06.889Z,20.13
2022-10-09T04:16:39.487Z,20.90
2022-10-09T04:19:12.368Z,21.50
2022-10-09T04:21:44.807Z,20.52
2022-10-09T04:24:17.396Z,20.13
2022-10-09T04:26:49.918Z,17.48
2022-10-09T04:29:22.440Z,17.48
2022-10-09T04:31:55.103Z,20.58
2022-10-09T04:34:27.722Z,21.33
2022-10-09T04:37:00.288Z,20.02
2022-10-09T04:39:32.723Z,22.08
2022-10-09T04:42:06.835Z,26.95
2022-10-09T04:44:39.293Z,31.85
2022-10-09T04:47:11.806Z,31.08
2022-10-09T04:49:44.279Z,30.33
2022-10-09T04:52:16.797Z,30.55
2022-10-09T04:54:49.383Z,38.28
2022-10-09T04:57:22.072Z,33.38
2022-10-09T04:59:54.571Z,35.78
2022-10-09T05:02:27.228Z,36.38
2022-10-09T05:04:59.685Z,33.38
2022-10-09T05:07:32.847Z,35.05
2022-10-09T05:10:06.649Z,36.40
2022-10-09T05:12:39.187Z,39.38
2022-10-09T05:15:11.650Z,37.70
2022-10-09T05:17:44.223Z,36.58
2022-10-09T05:20:17.102Z,39.50
2022-10-09T05:22:49.815Z,36.58
2022-10-09T05:25:22.344Z,38.45
2022-10-09T05:27:54.822Z,36.97
2022-10-09T05:30:27.359Z,33.83
2022-10-09T05:32:59.796Z,35.38
2022-10-09T05:35:32.208Z,34.15
2022-10-09T05:38:04.887Z,36.70
2022-10-09T05:40:37.410Z,41.53
2022-10-09T05:43:09.921Z,36.08
2022-10-09T05:45:42.432Z,36.25
2022-10-09T05:48:15.051Z,39.38
2022-10-09T05:50:47.912Z,34.25
2022-10-09T05:53:20.435Z,37.03
2022-10-09T05:55:52.908Z,33.78
2022-10-09T05:58:25.433Z,32.20
2022-10-09T06:01:00.839Z,30.50
2022-10-09T06:03:33.602Z,38.45
2022-10-09T06:06:09.151Z,36.08
2022-10-09T06:08:41.612Z,34.50
2022-10-09T06:11:19.039Z,35.78
2022-10-09T06:13:53.039Z,32.58
2022-10-09T06:16:29.068Z,40.55
2022-10-09T06:19:02.719Z,34.25
2022-10-09T06:21:35.534Z,38.42
2022-10-09T06:24:08.525Z,37.33
2022-10-09T06:26:40.994Z,36.83
2022-10-09T06:29:13.656Z,40.58
2022-10-09T06:31:46.260Z,39.85
2022-10-09T06:34:19.749Z,44.30
2022-10-09T06:36:52.177Z,46.13
2022-10-09T06:39:26.575Z,47.88
2022-10-09T06:41:59.038Z,44.15
2022-10-09T06:44:45.975Z,41.85
2022-10-09T06:47:18.735Z,48.38
2022-10-09T06:49:51.362Z,47.75
2022-10-09T06:52:23.986Z,48.90
2022-10-09T06:54:56.460Z,52.95
2022-10-09T06:57:29.043Z,48.03
2022-10-09T07:00:01.514Z,48.50
2022-10-09T07:02:34.398Z,54.38
2022-10-09T07:05:07.705Z,49.35
2022-10-09T07:07:41.187Z,49.42
2022-10-09T07:10:13.948Z,52.95
2022-10-09T07:12:46.848Z,52.05
2022-10-09T07:15:19.621Z,54.38
2022-10-09T07:17:52.435Z,53.83
2022-10-09T07:20:25.123Z,58.42
2022-10-09T07:22:57.724Z,55.20
2022-10-09T07:25:30.359Z,53.78
2022-10-09T07:28:02.957Z,51.58
2022-10-09T07:30:38.712Z,53.38
2022-10-09T07:33:11.115Z,57.05
2022-10-09T07:35:43.761Z,51.10
2022-10-09T07:38:16.297Z,54.72
2022-10-09T07:40:49.022Z,62.17
2022-10-09T07:43:22.579Z,55.28
2022-10-09T07:45:59.849Z,49.25
2022-10-09T07:48:33.935Z,48.60
2022-10-09T07:51:11.311Z,57.40
2022-10-09T07:53:45.225Z,43.67
2022-10-09T07:56:21.051Z,59.63
2022-10-09T07:58:56.371Z,61.88
2022-10-09T08:04:03.625Z,67.70
2022-10-09T08:06:36.486Z,68.07
2022-10-09T08:09:09.580Z,62.92
2022-10-09T08:11:42.704Z,69.53
2022-10-09T08:14:19.290Z,74.57
2022-10-09T08:16:52.875Z,71.07
2022-10-09T08:19:25.515Z,60.10
2022-10-09T08:22:01.317Z,71.20
2022-10-09T08:24:35.996Z,77.03
2022-10-09T08:27:08.612Z,74.78
2022-10-09T08:29:41.207Z,76.00
2022-10-09T08:32:13.829Z,77.55
2022-10-09T08:34:47.036Z,74.63
2022-10-09T08:37:19.683Z,75.00
2022-10-09T08:39:52.240Z,80.32
2022-10-09T08:42:39.596Z,79.22
2022-10-09T08:45:18.288Z,75.35
2022-10-09T08:47:57.109Z,74.63
2022-10-09T08:50:36.370Z,73.95
2022-10-09T08:53:40.017Z,73.75
2022-10-09T08:56:15.402Z,70.93
2022-10-09T09:01:51.910Z,67.38
2022-10-09T09:04:55.466Z,63.40
2022-10-09T09:07:46.647Z,69.82
2022-10-09T09:10:41.159Z,66.47
2022-10-09T09:13:21.045Z,67.10
2022-10-09T09:16:03.827Z,73.60
2022-10-09T09:18:53.697Z,69.57
2022-10-09T09:21:43.746Z,70.10
2022-10-09T09:24:20.004Z,71.75
2022-10-09T09:26:56.811Z,72.70
2022-10-09T09:29:38.364Z,72.75
2022-10-09T09:32:20.129Z,73.55
2022-10-09T09:34:59.591Z,76.20
2022-10-09T09:37:32.217Z,81.63
2022-10-09T09:40:35.705Z,79.20
2022-10-09T09:43:04.840Z,83.88
2022-10-09T09:45:37.980Z,80.80
2022-10-09T09:48:19.357Z,80.40
2022-10-09T09:51:15.824Z,84.95
2022-10-09T09:53:51.697Z,76.65
2022-10-09T09:57:11.228Z,85.65
2022-10-09T09:59:38.820Z,80.38
2022-10-09T10:02:23.351Z,74.80
2022-10-09T10:05:01.861Z,75.97
2022-10-09T10:07:38.537Z,72.22
2022-10-09T10:10:24.025Z,67.82
2022-10-09T10:13:00.732Z,63.08
2022-10-09T10:15:35.108Z,65.72
2022-10-09T10:18:14.448Z,62.30
2022-10-09T10:20:51.659Z,61.60
2022-10-09T10:23:33.518Z,50.42
2022-10-09T10:26:22.635Z,49.42
2022-10-09T10:29:22.724Z,51.28
2022-10-09T10:32:18.790Z,48.72
2022-10-09T10:34:59.351Z,46.40
2022-10-09T10:37:36.101Z,43.40
2022-10-09T10:40:20.680Z,47.35
2022-10-09T10:43:02.286Z,45.25
2022-10-09T10:46:05.814Z,51.25
2022-10-09T10:48:45.825Z,50.63
2022-10-09T10:51:30.960Z,56.67
2022-10-09T10:54:20.041Z,59.47
2022-10-09T10:57:12.446Z,57.75
2022-10-09T10:59:51.251Z,60.08
2022-10-09T11:02:33.925Z,56.10
2022-10-09T11:05:27.766Z,49.55
2022-10-09T11:08:30.683Z,52.33
2022-10-09T11:11:10.924Z,51.22
2022-10-09T11:14:06.162Z,55.50
2022-10-09T11:17:10.109Z,53.45
2022-10-09T11:19:53.440Z,48.88
2022-10-09T11:22:52.180Z,53.67
2022-10-09T11:25:55.695Z,51.67
2022-10-09T11:28:35.163Z,52.67
2022-10-09T11:31:16.448Z,48.95
2022-10-09T11:33:54.904Z,49.22
2022-10-09T11:36:41.995Z,53.88
2022-10-09T11:39:20.766Z,48.30
2022-10-09T11:41:55.132Z,48.88
2022-10-09T11:44:52.484Z,45.37
2022-10-09T11:47:54.769Z,46.50
2022-10-09T11:50:51.168Z,45.50
2022-10-09T11:53:25.956Z,44.67
2022-10-09T11:56:19.510Z,44.17
2022-10-09T11:59:03.987Z,44.20
2022-10-09T12:01:41.907Z,46.95
2022-10-09T12:04:20.819Z,49.33
2022-10-09T12:07:03.733Z,43.05
2022-10-09T12:09:41.875Z,44.42
2022-10-09T12:12:18.708Z,42.75
2022-10-09T12:14:53.476Z,43.35
2022-10-09T12:17:26.731Z,40.10
2022-10-09T12:20:08.346Z,39.00
2022-10-09T12:23:01.486Z,42.20
2022-10-09T12:25:44.116Z,39.28
2022-10-09T12:28:35.557Z,36.72
2022-10-09T12:31:32.043Z,38.63
2022-10-09T12:34:15.189Z,34.53
2022-10-09T12:36:47.698Z,38.65
2022-10-09T12:39:24.866Z,34.63
2022-10-09T12:41:58.592Z,38.60
2022-10-09T12:44:40.151Z,40.42
2022-10-09T12:47:20.523Z,37.35
2022-10-09T12:49:58.514Z,38.63
2022-10-09T12:52:32.539Z,32.80
2022-10-09T12:55:23.518Z,33.63
2022-10-09T12:58:13.345Z,35.85
2022-10-09T13:00:49.039Z,35.75
2022-10-09T13:03:35.479Z,35.67
2022-10-09T13:06:16.187Z,34.70
2022-10-09T13:09:06.071Z,37.00
2022-10-09T13:11:44.046Z,34.63
2022-10-09T13:14:34.570Z,33.65
2022-10-09T13:17:21.950Z,35.47
2022-10-09T13:19:57.099Z,34.08
2022-10-09T13:22:33.715Z,34.15
2022-10-09T13:25:09.814Z,34.20
2022-10-09T13:27:42.704Z,32.67
2022-10-09T13:30:16.043Z,33.72
2022-10-09T13:32:49.572Z,31.45
2022-10-09T13:35:22.091Z,31.13
2022-10-09T13:37:54.766Z,28.10
2022-10-09T13:40:27.592Z,30.88
2022-10-09T13:43:03.271Z,27.77
2022-10-09T13:45:35.825Z,32.28
2022-10-09T13:48:08.529Z,33.72
2022-10-09T13:50:41.266Z,25.13
2022-10-09T13:53:15.454Z,27.98
2022-10-09T13:55:48.369Z,24.23
2022-10-09T13:58:22.317Z,24.33
2022-10-09T14:00:55.368Z,26.92
2022-10-09T14:03:28.039Z,25.67
2022-10-09T14:06:03.288Z,25.75
2022-10-09T14:11:08.436Z,23.13
2022-10-09T14:13:41.308Z,22.35
2022-10-09T14:16:14.442Z,24.88
2022-10-09T14:18:47.163Z,25.02
2022-10-09T14:21:19.921Z,28.73
2022-10-09T14:23:56.001Z,26.77
2022-10-09T14:26:29.501Z,24.45
2022-10-09T14:29:03.931Z,23.27
2022-10-09T14:31:36.638Z,19.60
2022-10-09T14:34:12.955Z,19.92
2022-10-09T14:36:45.585Z,20.40
2022-10-09T14:39:18.101Z,18.50
2022-10-09T14:41:50.598Z,20.98
2022-10-09T14:44:23.244Z,20.42
2022-10-09T14:46:55.796Z,20.25
2022-10-09T14:49:28.495Z,20.63
2022-10-09T14:52:01.668Z,20.02
2022-10-09T14:54:34.370Z,19.25
2022-10-09T14:57:07.060Z,16.83
2022-10-09T14:59:39.831Z,16.75
2022-10-09T15:02:16.158Z,18.95
2022-10-09T15:04:48.921Z,16.45
2022-10-09T15:07:21.581Z,17.90
2022-10-09T15:09:55.102Z,17.00
2022-10-09T15:12:27.701Z,18.08
2022-10-09T15:15:00.254Z,16.05
2022-10-09T15:17:32.746Z,15.88
2022-10-09T15:20:05.743Z,15.02
2022-10-09T15:22:38.403Z,13.38
2022-10-09T15:25:12.367Z,15.65
2022-10-09T15:27:44.957Z,14.35
2022-10-09T15:30:18.073Z,14.77
2022-10-09T15:32:50.780Z,14.52
2022-10-09T15:35:23.753Z,20.50
2022-10-09T15:37:56.322Z,15.95
2022-10-09T15:40:29.428Z,14.48
2022-10-09T15:43:02.113Z,15.38
2022-10-09T15:45:36.345Z,16.52
2022-10-09T15:48:16.130Z,15.20
2022-10-09T15:50:52.122Z,13.90
2022-10-09T15:53:25.326Z,13.98
2022-10-09T15:56:04.105Z,15.05
2022-10-09T15:58:36.684Z,14.20
2022-10-09T16:01:11.817Z,15.35
2022-10-09T16:03:45.168Z,14.15
2022-10-09T16:06:22.314Z,16.13
2022-10-09T16:08:58.331Z,14.27
2022-10-09T16:11:32.761Z,13.95
2022-10-09T16:14:06.470Z,15.33
2022-10-09T16:16:39.494Z,16.00
2022-10-09T16:19:15.072Z,14.70
2022-10-09T16:21:49.683Z,20.05
2022-10-09T16:24:22.374Z,15.52
2022-10-09T16:26:55.301Z,18.25
2022-10-09T16:29:28.275Z,18.20
2022-10-09T16:32:01.139Z,18.05
2022-10-09T16:34:33.830Z,13.60
2022-10-09T16:37:06.625Z,20.15
2022-10-09T16:39:39.427Z,18.27
2022-10-09T16:42:12.722Z,18.20
2022-10-09T16:44:45.519Z,21.92
2022-10-09T16:47:18.945Z,19.30
2022-10-09T16:49:52.095Z,18.27
2022-10-09T16:52:24.723Z,20.55
2022-10-09T16:55:00.403Z,22.88
2022-10-09T16:57:33.725Z,24.33
2022-10-09T17:00:08.890Z,19.88
2022-10-09T17:02:41.649Z,24.98
2022-10-09T17:05:14.369Z,23.52
2022-10-09T17:07:47.441Z,25.30
2022-10-09T17:10:21.563Z,22.38
2022-10-09T17:12:54.795Z,21.27
2022-10-09T17:15:27.519Z,28.33
2022-10-09T17:18:00.424Z,28.73
2022-10-09T17:20:35.968Z,27.65
2022-10-09T17:25:43.877Z,19.27
2022-10-09T17:28:16.599Z,30.05
2022-10-09T17:30:49.351Z,24.80
2022-10-09T17:33:22.084Z,23.77
2022-10-09T17:35:55.092Z,27.10
2022-10-09T17:38:27.875Z,26.90
2022-10-09T17:41:03.558Z,22.60
2022-10-09T17:43:36.343Z,21.55
2022-10-09T17:46:09.119Z,22.17
2022-10-09T17:48:45.509Z,21.05
2022-10-09T17:51:21.398Z,22.25
2022-10-09T17:56:31.710Z,21.67
2022-10-09T17:59:04.891Z,22.88
2022-10-09T18:01:37.694Z,20.33
2022-10-09T18:04:15.946Z,19.58
2022-10-09T18:06:49.614Z,23.63
2022-10-09T18:09:22.223Z,20.95
2022-10-09T18:11:54.881Z,22.10
2022-10-09T18:14:27.555Z,21.63
2022-10-09T18:17:00.098Z,21.90
2022-10-09T18:19:32.753Z,23.58
2022-10-09T18:22:05.278Z,19.23
2022-10-09T18:24:37.939Z,23.38
2022-10-09T18:27:10.551Z,19.55
2022-10-09T18:29:43.707Z,24.30
2022-10-09T18:32:16.189Z,25.40
2022-10-09T18:34:48.860Z,21.95
2022-10-09T18:37:21.427Z,22.67
2022-10-09T18:39:54.408Z,22.50
2022-10-09T18:42:27.173Z,22.92
2022-10-09T18:44:59.996Z,23.17
2022-10-09T18:47:36.492Z,22.80
2022-10-09T18:50:13.045Z,19.23
2022-10-09T18:52:46.298Z,25.40
2022-10-09T18:55:22.489Z,24.35
2022-10-09T18:57:59.381Z,21.23
2022-10-09T19:00:32.531Z,24.05
2022-10-09T19:03:05.738Z,21.08
2022-10-09T19:05:40.411Z,25.77
2022-10-09T19:08:13.091Z,20.92
2022-10-09T19:10:53.884Z,21.25
2022-10-09T19:13:27.036Z,23.75
2022-10-09T19:15:59.836Z,23.75
2022-10-09T19:18:35.525Z,24.52
2022-10-09T19:21:14.287Z,20.02
2022-10-09T19:23:48.746Z,21.85
2022-10-09T19:26:23.339Z,21.33
2022-10-09T19:28:57.428Z,24.05
2022-10-09T19:31:30.466Z,24.55
2022-10-09T19:34:05.289Z,20.65
2022-10-09T19:36:38.056Z,23.33
2022-10-09T19:39:11.062Z,23.20
2022-10-09T19:41:43.919Z,21.95
2022-10-09T19:44:18.217Z,20.63
2022-10-09T19:46:51.212Z,18.17
2022-10-09T19:49:24.120Z,20.38
2022-10-09T19:51:56.777Z,19.45
2022-10-09T19:54:31.448Z,20.25
2022-10-09T19:57:04.572Z,19.45
2022-10-09T19:59:40.465Z,22.83
2022-10-09T20:02:13.904Z,19.58
2022-10-09T20:04:49.520Z,18.83
2022-10-09T20:07:25.247Z,21.08
2022-10-09T20:09:58.146Z,21.38
2022-10-09T20:12:30.696Z,20.70
2022-10-09T20:15:03.678Z,20.38
2022-10-09T20:17:36.704Z,20.77
2022-10-09T20:20:12.484Z,22.75
2022-10-09T20:22:46.960Z,22.15
2022-10-09T20:25:20.530Z,24.95
2022-10-09T20:27:54.832Z,20.05
2022-10-09T20:30:27.880Z,23.58
2022-10-09T20:33:01.307Z,24.05
2022-10-09T20:35:43.411Z,22.58
2022-10-09T20:38:16.928Z,22.95
2022-10-09T20:40:49.556Z,20.95
2022-10-09T20:43:22.251Z,23.42
2022-10-09T20:45:54.815Z,19.85
2022-10-09T20:48:27.434Z,23.90
2022-10-09T20:51:00.970Z,19.80
2022-10-09T20:53:34.339Z,20.92
2022-10-09T20:56:10.047Z,21.00
2022-10-09T20:58:42.969Z,21.75
2022-10-09T21:01:16.983Z,21.23
2022-10-09T21:03:49.983Z,25.02
2022-10-09T21:06:22.994Z,24.73
2022-10-09T21:08:55.939Z,23.17
2022-10-09T21:11:28.433Z,21.10
2022-10-09T21:14:02.105Z,20.95
2022-10-09T21:16:34.695Z,26.10
2022-10-09T21:19:07.548Z,24.58
2022-10-09T21:21:40.050Z,25.10
2022-10-09T21:24:12.719Z,24.38
2022-10-09T21:26:47.527Z,22.95
2022-10-09T21:29:20.051Z,26.65
2022-10-09T21:31:52.644Z,25.13
2022-10-09T21:34:25.369Z,26.17
2022-10-09T21:39:50.653Z,27.38
2022-10-09T21:42:23.144Z,27.02
2022-10-09T21:44:56.266Z,28.30
2022-10-09T21:47:28.874Z,28.80
2022-10-09T21:50:01.526Z,27.00
2022-10-09T21:52:34.113Z,29.45
2022-10-09T21:55:07.112Z,27.15
2022-10-09T21:57:39.797Z,32.53
2022-10-09T22:00:13.445Z,31.02
2022-10-09T22:02:46.053Z,30.92
2022-10-09T22:05:18.634Z,28.30
2022-10-09T22:07:51.148Z,32.65
2022-10-09T22:10:23.655Z,32.97
2022-10-09T22:12:56.081Z,32.80
2022-10-09T22:15:28.779Z,32.95
2022-10-09T22:18:01.384Z,35.75
2022-10-09T22:20:33.957Z,37.13
2022-10-09T22:23:06.597Z,30.58
2022-10-09T22:25:39.577Z,38.55
2022-10-09T22:28:12.079Z,34.00
2022-10-09T22:30:44.723Z,35.90
2022-10-09T22:33:17.207Z,33.08
2022-10-09T22:35:49.768Z,34.67
2022-10-09T22:38:22.285Z,32.63
2022-10-09T22:41:04.927Z,33.95
2022-10-09T22:43:39.431Z,34.15
2022-10-09T22:46:14.795Z,30.40
2022-10-09T22:51:21.868Z,33.13
2022-10-09T22:53:56.035Z,29.48
2022-10-09T22:56:33.525Z,36.85
2022-10-09T22:59:07.514Z,34.92
2022-10-09T23:01:48.537Z,34.38
2022-10-09T23:04:22.709Z,39.45
2022-10-09T23:06:57.953Z,38.22
2022-10-09T23:09:32.714Z,33.72
2022-10-09T23:12:05.544Z,36.20
2022-10-09T23:14:38.319Z,38.15
2022-10-09T23:17:10.906Z,37.10
2022-10-09T23:19:43.507Z,37.03
2022-10-09T23:22:16.180Z,44.95
2022-10-09T23:24:48.694Z,36.92
2022-10-09T23:27:21.664Z,37.30
2022-10-09T23:29:54.114Z,40.58
2022-10-09T23:32:26.584Z,36.35
2022-10-09T23:34:59.030Z,39.45
2022-10-09T23:37:31.754Z,33.20
2022-10-09T23:40:04.915Z,35.42
2022-10-09T23:42:37.449Z,36.67
2022-10-09T23:45:10.480Z,41.70
2022-10-09T23:47:43.062Z,36.17
2022-10-09T23:50:15.734Z,38.20
2022-10-09T23:52:48.514Z,36.13
2022-10-09T23:55:21.223Z,44.65
2022-10-09T23:57:53.694Z,36.55
